Leon — D5BH4 — position and weather

sailwx.info

Track history (hours):
 
Tides and Currents Weather Stations Pressure Air Temp Water Temp Dewpoint Dewpoint Depression Visibility Wind Speed Wind Dir Waves Ship Positions

Leon

Last reported at 2014-Sep-16 06:12 UTC. Time now 2014-Sep-18 19:45 UTC.
Position N 36°33' W 001°31'.

Length 95 m; draft 4.8 m.

Type: Ship (hazmat cat C). MMSI: 636015519.

Date/timePositionNaut miles runAvg speedWind from/ knotsBaromVisibWave heightAir tempDewpointWater temp
2014-Sep-16 06:12N 36°33' W 001°31'2311.2
2014-Sep-16 04:10N 36°37' W 001°03'1910.9
2014-Sep-16 02:27N 36°41' W 000°40'1110.7
2014-Sep-16 01:28N 36°43' W 000°27'4010.2
2014-Sep-15 21:31N 36°52' E 000°22'10 9.9
2014-Sep-15 20:33N 36°54' E 000°34'10 9.8
2014-Sep-15 19:33N 36°56' E 000°46'10 9.7
2014-Sep-15 18:33N 36°58' E 000°58'1210.3
2014-Sep-15 17:26N 37°02' E 001°11'1110.4
2014-Sep-15 16:25N 37°06' E 001°23'1010.7
2014-Sep-15 15:31N 37°10' E 001°34'118 9.5
2014-Sep-15 03:05N 37°30' E 004°01'12610.9
2014-Sep-14 15:27N 37°30' E 006°40'38110.0
2014-Sep-13 01:27N 36°20' E 014°29'3110.6
2014-Sep-12 22:33N 36°20' E 015°08'  
2014-Sep-08 17:33N 36°20' E 014°53'1210.3
2014-Sep-08 16:23N 36°20' E 014°38'1010.4
2014-Sep-08 15:27N 36°19' E 014°26'1010.8
2014-Sep-08 14:33N 36°21' E 014°14'1211.0
2014-Sep-08 13:30N 36°25' E 014°00'1411.4
2014-Sep-08 12:18N 36°29' E 013°44'16210.3
2014-Sep-07 20:33N 37°31' E 010°36'1110.9
2014-Sep-07 19:33N 37°34' E 010°23'1210.6
2014-Sep-07 18:27N 37°34' E 010°08'1310.9
2014-Sep-07 17:16N 37°34' E 009°52'810.8
2014-Sep-07 16:32N 37°31' E 009°43'1010.6
2014-Sep-07 15:33N 37°28' E 009°30'1110.7
2014-Sep-07 14:33N 37°25' E 009°18'1110.4
2014-Sep-07 13:32N 37°21' E 009°05'1010.0
2014-Sep-07 12:33N 37°20' E 008°53'14110.0
2014-Sep-06 22:32N 37°20' E 005°56'  
Track history (hours):
 
Tides and Currents Weather Stations Pressure Air Temp Water Temp Dewpoint Dewpoint Depression Visibility Wind Speed Wind Dir Waves Ship Positions

Leon

Last reported at 2014-Sep-16 06:12 UTC. Time now 2014-Sep-18 19:45 UTC.
Position N 36°33' W 001°31'.

Length 95 m; draft 4.8 m.

Type: Ship (hazmat cat C). MMSI: 636015519.

Date/timePositionNaut miles runAvg speedWind from/ knotsBaromVisibWave heightAir tempDewpointWater temp
2014-Sep-16 06:12N 36°33' W 001°31'2311.2
2014-Sep-16 04:10N 36°37' W 001°03'1910.9
2014-Sep-16 02:27N 36°41' W 000°40'1110.7
2014-Sep-16 01:28N 36°43' W 000°27'4010.2
2014-Sep-15 21:31N 36°52' E 000°22'10 9.9
2014-Sep-15 20:33N 36°54' E 000°34'10 9.8
2014-Sep-15 19:33N 36°56' E 000°46'10 9.7
2014-Sep-15 18:33N 36°58' E 000°58'1210.3
2014-Sep-15 17:26N 37°02' E 001°11'1110.4
2014-Sep-15 16:25N 37°06' E 001°23'1010.7
2014-Sep-15 15:31N 37°10' E 001°34'118 9.5
2014-Sep-15 03:05N 37°30' E 004°01'12610.9
2014-Sep-14 15:27N 37°30' E 006°40'38110.0
2014-Sep-13 01:27N 36°20' E 014°29'3110.6
2014-Sep-12 22:33N 36°20' E 015°08'  
2014-Sep-08 17:33N 36°20' E 014°53'1210.3
2014-Sep-08 16:23N 36°20' E 014°38'1010.4
2014-Sep-08 15:27N 36°19' E 014°26'1010.8
2014-Sep-08 14:33N 36°21' E 014°14'1211.0
2014-Sep-08 13:30N 36°25' E 014°00'1411.4
2014-Sep-08 12:18N 36°29' E 013°44'16210.3
2014-Sep-07 20:33N 37°31' E 010°36'1110.9
2014-Sep-07 19:33N 37°34' E 010°23'1210.6
2014-Sep-07 18:27N 37°34' E 010°08'1310.9
2014-Sep-07 17:16N 37°34' E 009°52'810.8
2014-Sep-07 16:32N 37°31' E 009°43'1010.6
2014-Sep-07 15:33N 37°28' E 009°30'1110.7
2014-Sep-07 14:33N 37°25' E 009°18'1110.4
2014-Sep-07 13:32N 37°21' E 009°05'1010.0
2014-Sep-07 12:33N 37°20' E 008°53'14110.0
2014-Sep-06 22:32N 37°20' E 005°56'  

Dump ship's entire track history